Time;durP1;ratioP1;P1;durP2;ratioP2;P2;SDS_P1;SDS_P2;PMS_P1;PMS_P2;Temp;Humidity;BMP_temperature;BMP_pressure;BME280_temperature;BME280_humidity;BME280_pressure;Samples;Min_cycle;Max_cycle;Signal;HPM_P1;HPM_P2
2022/03/23 00:00:26;;;;;;;17.00;11.15;;;;;;;;;;10342252;28;20247;-76
2022/03/23 00:05:28;;;;;;;19.52;12.07;;;;;;;;;;10340713;28;20201;-76
2022/03/23 00:10:30;;;;;;;19.00;11.48;;;;;;;;;;10344989;28;20255;-76
2022/03/23 00:15:32;;;;;;;15.00;10.57;;;;;;;;;;10343493;28;20201;-76
2022/03/23 00:20:33;;;;;;;20.52;11.82;;;;;;;;;;10340382;28;20208;-76
2022/03/23 00:25:34;;;;;;;21.50;11.82;;;;;;;;;;10344393;28;20685;-76
2022/03/23 00:30:35;;;;;;;19.88;11.85;;;;;;;;;;10341604;28;20197;-76
2022/03/23 00:35:36;;;;;;;24.33;11.60;;;;;;;;;;10339236;28;20893;-76
2022/03/23 00:40:38;;;;;;;14.85;10.80;;;;;;;;;;10340498;28;20319;-76
2022/03/23 00:45:40;;;;;;;23.20;11.95;;;;;;;;;;10374488;28;20201;-76
2022/03/23 00:50:42;;;;;;;22.60;11.68;;;;;;;;;;10350037;28;20291;-76
2022/03/23 00:55:43;;;;;;;18.77;11.60;;;;;;;;;;10343127;28;20202;-76
2022/03/23 01:00:45;;;;;;;21.55;11.23;;;;;;;;;;10338699;28;20224;-75
2022/03/23 01:05:46;;;;;;;24.50;11.90;;;;;;;;;;10374298;28;20703;-76
2022/03/23 01:10:48;;;;;;;20.15;11.77;;;;;;;;;;10338564;28;20208;-76
2022/03/23 01:15:49;;;;;;;15.48;11.10;;;;;;;;;;10336791;28;20200;-75
2022/03/23 01:20:50;;;;;;;16.75;10.43;;;;;;;;;;10335273;28;20192;-75
2022/03/23 01:25:51;;;;;;;17.15;10.90;;;;;;;;;;10337072;28;20228;-76
2022/03/23 01:30:52;;;;;;;19.10;11.40;;;;;;;;;;10339061;28;20217;-75
2022/03/23 01:35:54;;;;;;;19.10;11.15;;;;;;;;;;10331182;28;20639;-75
2022/03/23 01:40:55;;;;;;;19.10;11.98;;;;;;;;;;10341259;28;20283;-76
2022/03/23 01:45:56;;;;;;;15.38;11.32;;;;;;;;;;10336773;28;20200;-75
2022/03/23 01:50:57;;;;;;;20.10;12.40;;;;;;;;;;10339635;28;20204;-75
2022/03/23 01:55:59;;;;;;;21.38;11.70;;;;;;;;;;10341874;28;20196;-76
2022/03/23 02:01:00;;;;;;;16.88;11.65;;;;;;;;;;10370433;28;20263;-75
2022/03/23 02:06:01;;;;;;;22.33;12.25;;;;;;;;;;10343469;28;20219;-75
2022/03/23 02:11:02;;;;;;;17.87;12.40;;;;;;;;;;10370003;28;20204;-75
2022/03/23 02:16:09;;;;;;;20.03;11.67;;;;;;;;;;10338153;28;20197;-75
2022/03/23 02:21:13;;;;;;;27.13;12.03;;;;;;;;;;10375828;28;20582;-75
2022/03/23 02:26:15;;;;;;;17.80;11.43;;;;;;;;;;10378599;28;20219;-75
2022/03/23 02:31:16;;;;;;;19.60;11.73;;;;;;;;;;10346414;28;20219;-75
2022/03/23 02:36:17;;;;;;;20.20;11.70;;;;;;;;;;10346350;28;20211;-75
2022/03/23 02:41:18;;;;;;;19.37;11.47;;;;;;;;;;10345258;28;20566;-75
2022/03/23 02:46:20;;;;;;;23.03;12.87;;;;;;;;;;10343600;28;20208;-75
2022/03/23 02:51:21;;;;;;;21.47;11.67;;;;;;;;;;10344669;28;20208;-75
2022/03/23 03:01:58;;;;;;;24.27;12.77;;;;;;;;;;10340742;28;20228;-75
2022/03/23 03:06:59;;;;;;;25.03;11.30;;;;;;;;;;10342351;28;20297;-74
2022/03/23 03:12:01;;;;;;;29.83;12.90;;;;;;;;;;10341031;28;20220;-75
2022/03/23 03:17:02;;;;;;;22.00;13.23;;;;;;;;;;10345319;28;20236;-75
2022/03/23 03:22:05;;;;;;;22.70;12.10;;;;;;;;;;10340197;28;20681;-75
2022/03/23 03:27:06;;;;;;;24.80;12.30;;;;;;;;;;10346046;28;20220;-74
2022/03/23 03:32:07;;;;;;;20.03;11.70;;;;;;;;;;10345093;28;20212;-74
2022/03/23 03:37:08;;;;;;;25.13;12.93;;;;;;;;;;10341481;28;20204;-74
2022/03/23 03:42:09;;;;;;;21.47;12.37;;;;;;;;;;10341113;28;20614;-74
2022/03/23 03:47:11;;;;;;;25.07;12.20;;;;;;;;;;10348368;28;20204;-74
2022/03/23 03:52:12;;;;;;;29.57;12.73;;;;;;;;;;10343825;28;20278;-74
2022/03/23 03:57:13;;;;;;;26.27;12.97;;;;;;;;;;10346056;28;20831;-74
2022/03/23 04:02:14;;;;;;;26.37;13.90;;;;;;;;;;10339807;28;20216;-74
2022/03/23 04:07:15;;;;;;;29.40;13.33;;;;;;;;;;10343211;28;20692;-73
2022/03/23 04:12:16;;;;;;;23.03;13.67;;;;;;;;;;10344902;28;20205;-74
2022/03/23 04:17:17;;;;;;;24.13;13.10;;;;;;;;;;10344683;28;20292;-75
2022/03/23 04:22:18;;;;;;;20.57;12.80;;;;;;;;;;10341764;28;20220;-74
2022/03/23 04:27:19;;;;;;;22.10;12.33;;;;;;;;;;10342314;28;20302;-74
2022/03/23 04:32:20;;;;;;;27.73;12.67;;;;;;;;;;10342130;28;20251;-74
2022/03/23 04:37:21;;;;;;;22.97;12.23;;;;;;;;;;10345919;28;20188;-74
2022/03/23 04:42:22;;;;;;;30.97;12.77;;;;;;;;;;10342574;28;20570;-73
2022/03/23 04:47:24;;;;;;;18.47;11.43;;;;;;;;;;10341233;28;20219;-74
2022/03/23 04:52:25;;;;;;;28.60;13.73;;;;;;;;;;10373148;28;20342;-74
2022/03/23 04:57:27;;;;;;;25.87;11.93;;;;;;;;;;10342714;28;20196;-75
2022/03/23 05:02:28;;;;;;;27.07;11.83;;;;;;;;;;10349340;28;20216;-75
2022/03/23 05:07:29;;;;;;;27.63;12.50;;;;;;;;;;10346765;28;20279;-74
2022/03/23 05:12:30;;;;;;;26.00;11.83;;;;;;;;;;10340810;28;20204;-74
2022/03/23 05:17:31;;;;;;;27.93;12.80;;;;;;;;;;10344968;28;20200;-75
2022/03/23 05:22:33;;;;;;;23.03;13.77;;;;;;;;;;10341761;28;20288;-74
2022/03/23 05:27:38;;;;;;;20.30;12.37;;;;;;;;;;10339480;28;20211;-74
2022/03/23 05:32:39;;;;;;;18.63;13.00;;;;;;;;;;10338036;28;20268;-74
2022/03/23 05:37:41;;;;;;;22.83;12.97;;;;;;;;;;10340200;28;20197;-74
2022/03/23 05:42:42;;;;;;;169.97;53.87;;;;;;;;;;10339127;28;20262;-74
2022/03/23 05:47:43;;;;;;;125.87;44.80;;;;;;;;;;10338968;28;20211;-74
2022/03/23 05:52:44;;;;;;;32.37;16.63;;;;;;;;;;10341085;28;20214;-74
2022/03/23 05:57:45;;;;;;;25.87;13.87;;;;;;;;;;10340063;28;20206;-74
2022/03/23 06:02:46;;;;;;;26.03;14.13;;;;;;;;;;10340616;28;20224;-74
2022/03/23 06:07:48;;;;;;;36.53;17.90;;;;;;;;;;10339869;28;20572;-74
2022/03/23 06:12:49;;;;;;;32.37;14.93;;;;;;;;;;10371229;28;20212;-75
2022/03/23 06:17:50;;;;;;;36.13;14.30;;;;;;;;;;10336698;28;20200;-75
2022/03/23 06:22:51;;;;;;;32.57;13.33;;;;;;;;;;10335092;28;20696;-75
2022/03/23 06:27:52;;;;;;;24.90;13.90;;;;;;;;;;10368024;28;20294;-75
2022/03/23 06:32:53;;;;;;;24.23;14.77;;;;;;;;;;10333974;28;20228;-76
2022/03/23 06:37:54;;;;;;;30.60;15.47;;;;;;;;;;10342530;28;22169;-76
2022/03/23 06:42:55;;;;;;;28.27;14.80;;;;;;;;;;10344925;28;20239;-76
2022/03/23 06:47:56;;;;;;;21.33;14.03;;;;;;;;;;10342907;28;20255;-75
2022/03/23 06:52:57;;;;;;;25.37;15.23;;;;;;;;;;10344651;28;20213;-76
2022/03/23 06:57:58;;;;;;;31.98;15.82;;;;;;;;;;10337374;28;20210;-76
2022/03/23 07:03:00;;;;;;;30.10;15.53;;;;;;;;;;10340986;28;20642;-76
2022/03/23 07:13:21;;;;;;;32.75;18.38;;;;;;;;;;10338834;28;20213;-76
2022/03/23 07:18:22;;;;;;;25.40;15.02;;;;;;;;;;10342446;28;20565;-76
2022/03/23 07:23:23;;;;;;;25.52;14.00;;;;;;;;;;10339783;28;20208;-77
2022/03/23 07:28:24;;;;;;;22.08;13.27;;;;;;;;;;10349931;28;20204;-77
2022/03/23 07:33:25;;;;;;;18.15;12.73;;;;;;;;;;10347113;28;20230;-78
2022/03/23 07:38:26;;;;;;;21.42;13.82;;;;;;;;;;10352106;28;20980;-79
2022/03/23 07:43:27;;;;;;;19.33;12.73;;;;;;;;;;10348364;28;20283;-79
2022/03/23 07:48:28;;;;;;;18.60;12.70;;;;;;;;;;10346405;28;20247;-77
2022/03/23 07:53:29;;;;;;;21.05;13.13;;;;;;;;;;10346967;28;20574;-78
2022/03/23 07:58:30;;;;;;;19.25;13.50;;;;;;;;;;10352518;28;20201;-78
2022/03/23 08:03:31;;;;;;;22.30;14.30;;;;;;;;;;10345333;28;20227;-78
2022/03/23 08:08:32;;;;;;;22.75;14.68;;;;;;;;;;10374854;28;20208;-76
2022/03/23 08:13:34;;;;;;;23.48;15.40;;;;;;;;;;10346556;28;20216;-77
2022/03/23 08:18:35;;;;;;;25.33;15.23;;;;;;;;;;10345237;28;20201;-75
2022/03/23 08:23:37;;;;;;;22.60;15.48;;;;;;;;;;10374142;28;20202;-77
2022/03/23 08:28:39;;;;;;;25.38;15.48;;;;;;;;;;10344696;28;20200;-77
2022/03/23 08:33:40;;;;;;;22.98;14.98;;;;;;;;;;10342385;28;20246;-75
2022/03/23 08:38:42;;;;;;;21.30;14.38;;;;;;;;;;10343832;28;20208;-75
2022/03/23 08:43:43;;;;;;;21.10;14.82;;;;;;;;;;10333466;28;20221;-76
2022/03/23 08:48:44;;;;;;;21.98;14.80;;;;;;;;;;10337387;28;20232;-76
2022/03/23 08:53:45;;;;;;;21.25;14.95;;;;;;;;;;10344105;28;20212;-76
2022/03/23 08:58:49;;;;;;;21.42;14.77;;;;;;;;;;10345299;28;20204;-76
2022/03/23 09:03:51;;;;;;;22.92;15.43;;;;;;;;;;10340139;28;20567;-76
2022/03/23 09:08:52;;;;;;;25.00;16.17;;;;;;;;;;10340203;28;20723;-78
2022/03/23 09:13:54;;;;;;;21.15;14.98;;;;;;;;;;10342024;28;20298;-75
2022/03/23 09:18:55;;;;;;;24.63;16.73;;;;;;;;;;10340694;28;20430;-77
2022/03/23 09:23:56;;;;;;;26.20;17.20;;;;;;;;;;10342713;28;20633;-76
2022/03/23 09:28:58;;;;;;;23.38;17.33;;;;;;;;;;10341163;28;20267;-77
2022/03/23 09:34:02;;;;;;;24.35;17.85;;;;;;;;;;10341147;28;20303;-78
2022/03/23 09:39:04;;;;;;;23.25;16.80;;;;;;;;;;10336987;28;20203;-77
2022/03/23 09:44:05;;;;;;;41.90;22.25;;;;;;;;;;10339889;28;21048;-77
2022/03/23 09:49:06;;;;;;;28.33;18.85;;;;;;;;;;10336186;28;20210;-69
2022/03/23 09:54:07;;;;;;;27.23;17.13;;;;;;;;;;10329979;28;20204;-72
2022/03/23 09:59:08;;;;;;;25.23;17.45;;;;;;;;;;10329752;28;20193;-74
2022/03/23 10:04:12;;;;;;;24.08;16.77;;;;;;;;;;10329607;28;20227;-73
2022/03/23 10:09:26;;;;;;;22.52;17.05;;;;;;;;;;10334689;28;20207;-74
2022/03/23 10:14:46;;;;;;;26.85;18.40;;;;;;;;;;10336866;28;20204;-75
2022/03/23 10:19:47;;;;;;;27.80;17.17;;;;;;;;;;10365588;28;20215;-76
2022/03/23 10:24:49;;;;;;;27.88;17.70;;;;;;;;;;10328062;28;20291;-77
2022/03/23 10:29:54;;;;;;;19.73;14.68;;;;;;;;;;10368019;28;20209;-74
2022/03/23 10:34:55;;;;;;;21.65;16.17;;;;;;;;;;10332955;28;20228;-74
2022/03/23 10:39:57;;;;;;;21.60;15.55;;;;;;;;;;10339833;28;20283;-74
2022/03/23 10:45:12;;;;;;;22.52;16.40;;;;;;;;;;10335056;28;20595;-77
2022/03/23 10:50:17;;;;;;;19.17;15.70;;;;;;;;;;10341023;28;20200;-77
2022/03/23 10:55:19;;;;;;;21.90;16.50;;;;;;;;;;10341709;28;20296;-78
2022/03/23 11:00:30;;;;;;;24.27;16.83;;;;;;;;;;10338609;28;20211;-78
2022/03/23 11:05:39;;;;;;;21.70;17.65;;;;;;;;;;10341134;28;20685;-76
2022/03/23 11:16:05;;;;;;;21.85;18.02;;;;;;;;;;10342461;28;20236;-76
2022/03/23 11:21:06;;;;;;;23.70;17.02;;;;;;;;;;10341524;28;20266;-76
2022/03/23 11:26:08;;;;;;;23.02;19.10;;;;;;;;;;10340716;28;20688;-76
2022/03/23 11:31:10;;;;;;;24.77;17.27;;;;;;;;;;10341092;28;20316;-76
2022/03/23 11:36:12;;;;;;;20.08;17.77;;;;;;;;;;10339738;28;20197;-75
2022/03/23 11:41:14;;;;;;;22.85;18.52;;;;;;;;;;10337232;28;20232;-76
2022/03/23 11:46:20;;;;;;;20.17;18.08;;;;;;;;;;10331012;28;20200;-76
2022/03/23 11:51:32;;;;;;;21.60;17.83;;;;;;;;;;10336678;28;20291;-76
2022/03/23 11:56:40;;;;;;;20.45;17.83;;;;;;;;;;10333171;28;20232;-77
2022/03/23 12:01:41;;;;;;;26.38;19.10;;;;;;;;;;10332680;28;20228;-77
2022/03/23 12:06:42;;;;;;;21.08;18.98;;;;;;;;;;10336231;28;20501;-76
2022/03/23 12:11:43;;;;;;;21.55;19.35;;;;;;;;;;10336710;28;20204;-76
2022/03/23 12:16:51;;;;;;;21.48;18.80;;;;;;;;;;10333861;28;20208;-76
2022/03/23 12:21:55;;;;;;;21.15;18.83;;;;;;;;;;10338556;28;20207;-76
2022/03/23 12:26:57;;;;;;;22.20;18.63;;;;;;;;;;10367368;28;20204;-76
2022/03/23 12:32:06;;;;;;;20.60;18.50;;;;;;;;;;10363454;28;20216;-76
2022/03/23 12:37:09;;;;;;;21.33;19.13;;;;;;;;;;10335565;28;20196;-76
2022/03/23 12:42:16;;;;;;;21.27;18.98;;;;;;;;;;10338821;28;20311;-76
2022/03/23 12:47:19;;;;;;;20.52;18.38;;;;;;;;;;10339588;28;20208;-77
2022/03/23 12:57:49;;;;;;;24.80;17.75;;;;;;;;;;10339153;28;20200;-77
2022/03/23 13:02:55;;;;;;;20.38;18.15;;;;;;;;;;10338910;28;20891;-76
2022/03/23 13:07:56;;;;;;;20.88;18.65;;;;;;;;;;10341544;28;20209;-76
2022/03/23 13:13:08;;;;;;;21.42;17.65;;;;;;;;;;10339904;28;20325;-75
2022/03/23 13:18:09;;;;;;;19.25;17.25;;;;;;;;;;10338348;28;20193;-76
2022/03/23 13:23:12;;;;;;;21.90;18.10;;;;;;;;;;10338816;28;20192;-75
2022/03/23 13:28:14;;;;;;;18.67;16.48;;;;;;;;;;10340253;28;20207;-76
2022/03/23 13:33:16;;;;;;;17.90;16.10;;;;;;;;;;10338698;28;20220;-74
2022/03/23 13:38:17;;;;;;;16.20;14.75;;;;;;;;;;10341469;28;20344;-77
2022/03/23 13:43:21;;;;;;;17.33;15.73;;;;;;;;;;10338397;28;20230;-74
2022/03/23 13:48:23;;;;;;;17.85;16.15;;;;;;;;;;10336932;28;20231;-75
2022/03/23 13:53:24;;;;;;;17.63;15.40;;;;;;;;;;10339089;28;20338;-76
2022/03/23 13:58:26;;;;;;;18.67;16.80;;;;;;;;;;10337026;28;20243;-75
2022/03/23 14:03:31;;;;;;;16.38;14.95;;;;;;;;;;10336917;28;20212;-75
2022/03/23 14:08:36;;;;;;;17.42;14.80;;;;;;;;;;10340487;28;20201;-74
2022/03/23 14:13:40;;;;;;;16.52;15.00;;;;;;;;;;10340630;28;20204;-77
2022/03/23 14:18:41;;;;;;;14.90;13.60;;;;;;;;;;10345845;28;20212;-76
2022/03/23 14:23:42;;;;;;;13.00;11.30;;;;;;;;;;10343534;28;20201;-76
2022/03/23 14:28:45;;;;;;;15.23;12.18;;;;;;;;;;10343903;28;20207;-74
2022/03/23 14:33:54;;;;;;;13.15;11.95;;;;;;;;;;10344027;28;20216;-75
2022/03/23 14:38:57;;;;;;;13.43;11.90;;;;;;;;;;10342807;28;20237;-73
2022/03/23 14:43:59;;;;;;;13.88;12.50;;;;;;;;;;10342025;28;20564;-74
2022/03/23 14:49:00;;;;;;;13.95;12.57;;;;;;;;;;10343750;28;20209;-73
2022/03/23 14:54:02;;;;;;;16.42;14.82;;;;;;;;;;10342681;28;20209;-74
2022/03/23 14:59:04;;;;;;;17.20;15.10;;;;;;;;;;10341936;28;20280;-74
2022/03/23 15:04:05;;;;;;;17.85;14.70;;;;;;;;;;10343775;28;20266;-74
2022/03/23 15:14:26;;;;;;;16.23;14.55;;;;;;;;;;10372792;28;20217;-75
2022/03/23 15:19:27;;;;;;;18.00;16.10;;;;;;;;;;10342826;28;20204;-73
2022/03/23 15:24:28;;;;;;;18.42;16.45;;;;;;;;;;10337732;28;20232;-77
2022/03/23 15:29:29;;;;;;;19.42;17.27;;;;;;;;;;10343038;28;20291;-74
2022/03/23 15:34:30;;;;;;;22.65;17.70;;;;;;;;;;10341743;28;20217;-76
2022/03/23 15:39:31;;;;;;;21.80;17.92;;;;;;;;;;10338834;28;20208;-76
2022/03/23 15:44:35;;;;;;;19.17;17.08;;;;;;;;;;10343148;28;20335;-76
2022/03/23 15:49:36;;;;;;;19.55;17.50;;;;;;;;;;10369284;28;20207;-77
2022/03/23 15:54:37;;;;;;;24.52;18.98;;;;;;;;;;10342360;28;20299;-80
2022/03/23 15:59:38;;;;;;;21.25;17.35;;;;;;;;;;10347210;28;20204;-80
2022/03/23 16:04:39;;;;;;;20.55;17.63;;;;;;;;;;10349951;28;20220;-82
2022/03/23 16:09:40;;;;;;;27.20;18.50;;;;;;;;;;10349982;28;20697;-80
2022/03/23 16:14:42;;;;;;;23.33;17.65;;;;;;;;;;10345817;28;20216;-81
2022/03/23 16:19:43;;;;;;;19.00;16.95;;;;;;;;;;10351579;28;20196;-82
2022/03/23 16:24:45;;;;;;;21.67;18.00;;;;;;;;;;10346941;28;20298;-80
2022/03/23 16:29:46;;;;;;;22.95;17.00;;;;;;;;;;10347067;28;20723;-82
2022/03/23 16:34:47;;;;;;;23.48;16.80;;;;;;;;;;10346669;28;20225;-81
2022/03/23 16:39:48;;;;;;;23.20;18.10;;;;;;;;;;10347391;28;20224;-80
2022/03/23 16:44:49;;;;;;;20.08;16.10;;;;;;;;;;10343177;28;20408;-80
2022/03/23 16:49:51;;;;;;;23.02;16.83;;;;;;;;;;10343011;28;20681;-79
2022/03/23 16:54:52;;;;;;;21.90;15.63;;;;;;;;;;10342577;28;20291;-79
2022/03/23 16:59:53;;;;;;;21.27;15.60;;;;;;;;;;10345271;28;20224;-79
2022/03/23 17:15:38;;;;;;;18.27;15.32;;;;;;;;;;10343698;28;20631;-81
2022/03/23 17:20:39;;;;;;;21.10;13.90;;;;;;;;;;10335933;28;20274;-78
2022/03/23 17:25:40;;;;;;;22.95;16.10;;;;;;;;;;10339944;28;20203;-80
2022/03/23 17:30:41;;;;;;;21.95;17.45;;;;;;;;;;10368554;28;20243;-79
2022/03/23 17:35:42;;;;;;;28.48;17.63;;;;;;;;;;10337347;28;20208;-79
2022/03/23 17:40:44;;;;;;;27.75;18.45;;;;;;;;;;10335746;28;20735;-78
2022/03/23 17:45:45;;;;;;;30.30;17.98;;;;;;;;;;10339088;28;20303;-78
2022/03/23 17:50:46;;;;;;;29.30;18.67;;;;;;;;;;10337858;28;20354;-78
2022/03/23 17:55:47;;;;;;;34.58;17.58;;;;;;;;;;10331817;28;20310;-77
2022/03/23 18:00:48;;;;;;;270.08;26.20;;;;;;;;;;10335802;28;20334;-78
2022/03/23 18:05:50;;;;;;;65.53;19.15;;;;;;;;;;10338286;28;20763;-78
2022/03/23 18:10:51;;;;;;;39.40;21.02;;;;;;;;;;10341353;28;20579;-78
2022/03/23 18:15:52;;;;;;;36.65;21.60;;;;;;;;;;10340628;28;20286;-78
2022/03/23 18:20:53;;;;;;;26.05;20.05;;;;;;;;;;10340064;28;20210;-77
2022/03/23 18:25:55;;;;;;;30.98;20.13;;;;;;;;;;10337932;28;20202;-78
2022/03/23 18:30:57;;;;;;;29.48;20.23;;;;;;;;;;10336469;28;20220;-77
2022/03/23 18:35:58;;;;;;;28.20;21.13;;;;;;;;;;10338713;28;20220;-77
2022/03/23 18:40:59;;;;;;;32.88;19.88;;;;;;;;;;10336332;28;20226;-77
2022/03/23 18:46:01;;;;;;;28.40;19.08;;;;;;;;;;10335824;28;21130;-76
2022/03/23 18:51:03;;;;;;;27.98;18.52;;;;;;;;;;10330351;28;20947;-74
2022/03/23 18:56:04;;;;;;;25.60;17.85;;;;;;;;;;10338603;28;20220;-77
2022/03/23 19:01:10;;;;;;;23.40;17.45;;;;;;;;;;10336330;28;20850;-74
2022/03/23 19:06:11;;;;;;;28.40;19.27;;;;;;;;;;10340722;28;20193;-73
2022/03/23 19:11:13;;;;;;;29.67;20.13;;;;;;;;;;10341943;28;20338;-75
2022/03/23 19:16:14;;;;;;;29.58;19.42;;;;;;;;;;10333742;28;20320;-74
2022/03/23 19:21:15;;;;;;;32.15;20.80;;;;;;;;;;10336353;28;20207;-76
2022/03/23 19:26:16;;;;;;;30.27;20.02;;;;;;;;;;10335614;28;20204;-74
2022/03/23 19:31:17;;;;;;;34.70;19.63;;;;;;;;;;10343826;28;20304;-74
2022/03/23 19:36:19;;;;;;;29.15;18.85;;;;;;;;;;10339255;28;20277;-73
2022/03/23 19:41:20;;;;;;;27.20;18.38;;;;;;;;;;10344076;28;20811;-73
2022/03/23 19:46:26;;;;;;;27.00;17.95;;;;;;;;;;10337446;28;20204;-74
2022/03/23 19:51:28;;;;;;;26.08;17.23;;;;;;;;;;10341331;28;20216;-73
2022/03/23 19:56:29;;;;;;;30.95;19.58;;;;;;;;;;10336384;28;20204;-72
2022/03/23 20:01:31;;;;;;;32.83;20.73;;;;;;;;;;10339619;28;20237;-74
2022/03/23 20:06:32;;;;;;;33.75;20.17;;;;;;;;;;10342144;28;20381;-73
2022/03/23 20:11:34;;;;;;;33.08;20.02;;;;;;;;;;10335163;28;20223;-75
2022/03/23 20:16:38;;;;;;;32.47;20.38;;;;;;;;;;10338362;28;21577;-77
2022/03/23 20:21:39;;;;;;;33.40;19.42;;;;;;;;;;10341926;28;20537;-76
2022/03/23 20:26:40;;;;;;;32.70;20.30;;;;;;;;;;10331494;28;20234;-76
2022/03/23 20:31:42;;;;;;;31.30;17.17;;;;;;;;;;10332158;28;20223;-74
2022/03/23 20:36:43;;;;;;;27.90;17.00;;;;;;;;;;10369520;28;20184;-75
2022/03/23 20:41:44;;;;;;;25.20;18.00;;;;;;;;;;10336858;28;20246;-73
2022/03/23 20:46:45;;;;;;;27.90;16.08;;;;;;;;;;10341392;28;20212;-74
2022/03/23 20:51:46;;;;;;;24.75;15.18;;;;;;;;;;10329627;28;20212;-74
2022/03/23 20:56:48;;;;;;;21.13;15.02;;;;;;;;;;10330756;28;20200;-76
2022/03/23 21:01:49;;;;;;;22.65;15.55;;;;;;;;;;10337121;28;20264;-74
2022/03/23 21:06:52;;;;;;;24.88;15.82;;;;;;;;;;10333367;28;20295;-74
2022/03/23 21:11:54;;;;;;;27.52;15.68;;;;;;;;;;10338767;28;20224;-74
2022/03/23 21:16:56;;;;;;;22.00;14.25;;;;;;;;;;10337943;28;22045;-75
2022/03/23 21:21:57;;;;;;;22.65;15.80;;;;;;;;;;10339822;28;20630;-75
2022/03/23 21:26:58;;;;;;;21.77;14.88;;;;;;;;;;10333186;28;20200;-74
2022/03/23 21:31:59;;;;;;;23.77;15.27;;;;;;;;;;10333645;28;20226;-73
2022/03/23 21:37:00;;;;;;;26.77;15.32;;;;;;;;;;10334677;28;20218;-74
2022/03/23 21:42:01;;;;;;;26.85;16.23;;;;;;;;;;10336665;28;20314;-76
2022/03/23 21:47:04;;;;;;;23.20;14.73;;;;;;;;;;10329674;28;20228;-76
2022/03/23 21:52:05;;;;;;;25.67;15.10;;;;;;;;;;10338957;28;20212;-74
2022/03/23 21:57:06;;;;;;;23.77;14.63;;;;;;;;;;10333850;28;20199;-74
2022/03/23 22:02:07;;;;;;;27.08;15.32;;;;;;;;;;10332955;28;20273;-74
2022/03/23 22:07:08;;;;;;;26.85;15.13;;;;;;;;;;10334331;28;20243;-74
2022/03/23 22:12:09;;;;;;;27.55;16.45;;;;;;;;;;10337692;28;20715;-74
2022/03/23 22:17:11;;;;;;;30.45;15.48;;;;;;;;;;10367593;28;20224;-74
2022/03/23 22:22:12;;;;;;;24.58;15.80;;;;;;;;;;10334400;28;20204;-74
2022/03/23 22:27:13;;;;;;;33.55;16.30;;;;;;;;;;10330020;28;20204;-74
2022/03/23 22:32:14;;;;;;;21.90;14.95;;;;;;;;;;10345647;28;20606;-76
2022/03/23 22:37:15;;;;;;;25.25;15.90;;;;;;;;;;10343976;28;20187;-74
2022/03/23 22:42:16;;;;;;;29.48;16.38;;;;;;;;;;10345947;28;20706;-74
2022/03/23 22:47:18;;;;;;;24.77;15.43;;;;;;;;;;10344850;28;20210;-74
2022/03/23 22:52:19;;;;;;;23.60;14.95;;;;;;;;;;10344529;28;20219;-74
2022/03/23 22:57:20;;;;;;;26.67;16.73;;;;;;;;;;10337808;28;20585;-74
2022/03/23 23:02:21;;;;;;;23.88;14.95;;;;;;;;;;10346661;28;20219;-76
2022/03/23 23:07:22;;;;;;;24.75;16.23;;;;;;;;;;10376121;28;20249;-73
2022/03/23 23:12:23;;;;;;;28.15;16.23;;;;;;;;;;10345774;28;20266;-75
2022/03/23 23:17:24;;;;;;;29.35;17.30;;;;;;;;;;10341394;28;20258;-74
2022/03/23 23:22:25;;;;;;;29.27;16.40;;;;;;;;;;10343270;28;20200;-75
2022/03/23 23:27:29;;;;;;;28.45;16.23;;;;;;;;;;10344864;28;20220;-74
2022/03/23 23:32:30;;;;;;;25.88;16.13;;;;;;;;;;10340477;28;20650;-75
2022/03/23 23:37:31;;;;;;;24.98;15.40;;;;;;;;;;10342978;28;20210;-76
2022/03/23 23:42:36;;;;;;;24.50;15.95;;;;;;;;;;10342835;28;20684;-76
2022/03/23 23:47:37;;;;;;;25.27;16.80;;;;;;;;;;10345467;28;20582;-76
2022/03/23 23:52:41;;;;;;;28.77;16.42;;;;;;;;;;10342341;28;20707;-76
2022/03/23 23:57:42;;;;;;;26.30;16.25;;;;;;;;;;10343897;28;20205;-76
